Time;durP1;ratioP1;P1;durP2;ratioP2;P2;SDS_P1;SDS_P2;PMS_P1;PMS_P2;Temp;Humidity;BMP_temperature;BMP_pressure;BME280_temperature;BME280_humidity;BME280_pressure;Samples;Min_cycle;Max_cycle;Signal;HPM_P1;HPM_P2
2023/04/08 00:02:34;;;;;;;25.62;14.47;;;;;;;7.07;100.00;101123.16;4793670;59;1143193;-68
2023/04/08 00:07:39;;;;;;;29.60;13.73;;;;;;;7.00;100.00;101125.74;4934364;57;1143049;-71
2023/04/08 00:12:45;;;;;;;22.67;14.17;;;;;;;7.01;100.00;101122.18;4936608;57;1143306;-72
2023/04/08 00:17:53;;;;;;;27.97;16.77;;;;;;;7.01;100.00;101131.39;4961547;56;1143107;-71
2023/04/08 00:22:58;;;;;;;22.17;13.70;;;;;;;6.97;100.00;101141.21;4937027;57;1143447;-73
2023/04/08 00:28:03;;;;;;;23.50;13.10;;;;;;;6.88;100.00;101148.71;4937353;57;1143166;-67
2023/04/08 00:33:09;;;;;;;18.42;11.22;;;;;;;6.84;100.00;101140.62;4939642;56;1143122;-71
2023/04/08 00:38:16;;;;;;;19.70;11.07;;;;;;;6.85;100.00;101146.27;4951302;57;1144059;-68
2023/04/08 00:43:23;;;;;;;20.60;12.15;;;;;;;6.89;100.00;101153.05;4934988;57;1143333;-70
2023/04/08 00:48:30;;;;;;;18.30;12.10;;;;;;;6.90;100.00;101150.34;5021040;57;1143190;-70
2023/04/08 00:53:35;;;;;;;13.80;9.60;;;;;;;6.90;100.00;101163.48;5040766;57;1143179;-71
2023/04/08 00:58:41;;;;;;;15.23;9.97;;;;;;;6.88;100.00;101165.80;5017195;56;1140967;-69
2023/04/08 01:04:18;;;;;;;17.53;9.40;;;;;;;6.90;100.00;101169.20;5022204;56;1141143;-68
2023/04/08 01:09:28;;;;;;;15.32;9.60;;;;;;;6.91;100.00;101170.91;4987306;56;1140951;-71
2023/04/08 01:14:38;;;;;;;15.95;9.05;;;;;;;6.86;100.00;101164.59;4950373;58;1141012;-69
2023/04/08 01:19:46;;;;;;;14.63;8.67;;;;;;;6.82;100.00;101168.77;4936411;58;1141100;-69
2023/04/08 01:24:59;;;;;;;11.43;8.13;;;;;;;6.68;100.00;101195.30;4936190;58;1141086;-70
2023/04/08 01:30:06;;;;;;;;;;;;;;;6.59;100.00;101193.13;4936919;58;1141073;-71
2023/04/08 01:35:12;;;;;;;15.80;9.50;;;;;;;6.60;100.00;101202.70;4986142;57;976306;-69
2023/04/08 01:40:19;;;;;;;18.10;10.57;;;;;;;6.54;100.00;101202.19;5022033;56;1222303;-72
2023/04/08 01:45:26;;;;;;;13.73;8.70;;;;;;;6.46;100.00;101203.86;5000873;56;1141034;-71
2023/04/08 01:50:32;;;;;;;13.15;7.78;;;;;;;6.42;100.00;101206.70;5036918;57;1141138;-66
2023/04/08 01:55:40;;;;;;;14.33;8.43;;;;;;;6.39;100.00;101206.88;5018053;56;1141260;-68
2023/04/08 02:00:47;;;;;;;15.43;9.47;;;;;;;6.37;100.00;101209.58;5019032;56;1141231;-71
2023/04/08 02:05:52;;;;;;;17.80;9.43;;;;;;;6.29;100.00;101221.77;4992769;57;1141886;-72
2023/04/08 02:10:58;;;;;;;17.20;8.50;;;;;;;6.22;100.00;101229.57;4933666;57;1139044;-72
2023/04/08 02:16:08;;;;;;;15.33;8.67;;;;;;;6.13;100.00;101235.24;4922680;58;1141780;-70
2023/04/08 02:21:19;;;;;;;15.70;8.87;;;;;;;6.03;100.00;101241.02;4932540;58;1141206;-69
2023/04/08 02:26:26;;;;;;;17.67;10.70;;;;;;;5.99;100.00;101247.72;4954330;58;1150568;-70
2023/04/08 02:31:35;;;;;;;20.00;11.00;;;;;;;5.93;100.00;101244.09;4928998;58;1143390;-70
2023/04/08 02:36:44;;;;;;;19.37;10.30;;;;;;;5.85;100.00;101254.50;4949036;57;1141108;-68
2023/04/08 02:41:48;;;;;;;19.17;9.50;;;;;;;5.80;100.00;101261.76;4987752;57;1143242;-69
2023/04/08 02:46:54;;;;;;;17.10;10.43;;;;;;;5.80;100.00;101261.76;4994553;57;1140980;-68
2023/04/08 02:52:00;;;;;;;16.83;11.17;;;;;;;5.82;100.00;101273.01;5017339;57;1143192;-67
2023/04/08 02:57:05;;;;;;;17.73;10.90;;;;;;;5.81;100.00;101269.53;5014688;57;1143379;-70
2023/04/08 03:02:11;;;;;;;18.13;10.90;;;;;;;5.73;100.00;101270.36;4997105;56;1141135;-72
2023/04/08 03:07:17;;;;;;;20.67;10.93;;;;;;;5.74;100.00;101270.75;4935588;58;1143212;-71
2023/04/08 03:12:23;;;;;;;19.17;10.60;;;;;;;5.76;100.00;101272.85;4926211;58;1143176;-70
2023/04/08 03:17:31;;;;;;;20.17;11.38;;;;;;;5.73;100.00;101276.06;4950785;58;1143164;-70
2023/04/08 03:22:37;;;;;;;21.52;12.53;;;;;;;5.65;100.00;101279.05;4934754;58;1141004;-71
2023/04/08 03:27:43;;;;;;;19.70;11.00;;;;;;;5.57;100.00;101280.70;4938561;58;1141094;-72
2023/04/08 03:32:49;;;;;;;21.23;11.27;;;;;;;5.53;100.00;101283.05;4958822;58;1143312;-72
2023/04/08 03:37:54;;;;;;;18.20;11.73;;;;;;;5.54;100.00;101279.52;5001015;56;1143324;-69
2023/04/08 03:43:00;;;;;;;20.17;13.37;;;;;;;5.55;100.00;101288.23;5023616;55;1143246;-68
2023/04/08 03:48:06;;;;;;;19.10;12.73;;;;;;;5.58;100.00;101288.11;4862785;58;1141116;-70
2023/04/08 03:53:11;;;;;;;17.37;11.63;;;;;;;5.57;100.00;101295.13;4904018;58;1141013;-70
2023/04/08 03:58:17;;;;;;;23.93;11.67;;;;;;;5.39;100.00;101294.62;4871299;58;1141064;-71
2023/04/08 04:03:23;;;;;;;26.27;14.37;;;;;;;5.33;100.00;101308.02;4858029;58;1141085;-68
2023/04/08 04:08:29;;;;;;;27.27;13.63;;;;;;;5.18;100.00;101319.17;4978615;57;1143167;-71
2023/04/08 04:13:35;;;;;;;30.87;15.37;;;;;;;5.03;100.00;101321.98;4835924;58;1143282;-70
2023/04/08 04:18:40;;;;;;;24.07;13.43;;;;;;;4.95;100.00;101336.70;4879213;57;1141807;-72
2023/04/08 04:23:46;;;;;;;30.80;14.67;;;;;;;4.94;100.00;101339.38;4990608;58;1141188;-71
2023/04/08 04:28:51;;;;;;;30.00;14.80;;;;;;;4.89;100.00;101350.05;4955596;58;1141130;-70
2023/04/08 04:33:57;;;;;;;24.30;12.93;;;;;;;4.83;100.00;101345.53;4939244;58;1141369;-67
2023/04/08 04:39:03;;;;;;;26.17;12.97;;;;;;;4.86;100.00;101367.69;5042740;57;1141188;-71
2023/04/08 04:44:09;;;;;;;29.57;15.53;;;;;;;4.89;100.00;101367.53;5041105;58;1143553;-69
2023/04/08 04:49:14;;;;;;;27.77;14.50;;;;;;;4.92;100.00;101377.45;4945364;58;1143697;-68
2023/04/08 04:54:20;;;;;;;33.17;16.67;;;;;;;4.92;100.00;101376.14;4944742;58;1141448;-68
2023/04/08 04:59:26;;;;;;;35.90;18.47;;;;;;;4.90;100.00;101383.20;4920815;58;1141003;-69
2023/04/08 05:04:31;;;;;;;49.90;24.87;;;;;;;4.78;100.00;101390.25;4931571;57;1141312;-72
2023/04/08 05:09:37;;;;;;;45.07;21.50;;;;;;;4.68;100.00;101394.62;4913253;58;1140872;-69
2023/04/08 05:14:43;;;;;;;30.80;14.50;;;;;;;4.62;100.00;101394.84;4886548;59;1141145;-70
2023/04/08 05:19:48;;;;;;;26.30;12.27;;;;;;;4.67;100.00;101398.15;4774692;59;1143136;-69
2023/04/08 05:24:54;;;;;;;20.53;12.17;;;;;;;4.74;100.00;101400.91;4812074;59;1143356;-70
2023/04/08 05:29:59;;;;;;;20.60;11.33;;;;;;;4.78;100.00;101406.44;4814220;60;1141150;-71
2023/04/08 05:35:05;;;;;;;21.10;12.10;;;;;;;4.82;100.00;101415.44;4793169;57;1141148;-72
2023/04/08 05:40:11;;;;;;;21.20;11.40;;;;;;;4.85;100.00;101411.39;4787158;59;1143305;-69
2023/04/08 05:45:17;;;;;;;17.13;11.47;;;;;;;4.93;100.00;101411.06;4915047;58;1143099;-71
2023/04/08 05:50:22;;;;;;;21.53;12.67;;;;;;;5.01;100.00;101406.39;4960967;58;1143299;-69
2023/04/08 05:55:28;;;;;;;20.30;13.00;;;;;;;5.24;100.00;101418.55;4926236;58;1143174;-70
2023/04/08 06:00:34;;;;;;;22.00;13.28;;;;;;;5.44;100.00;101415.10;4960579;58;1141155;-69
2023/04/08 06:05:39;;;;;;;17.70;12.17;;;;;;;5.59;100.00;101423.18;4903841;58;1143165;-68
2023/04/08 06:10:53;;;;;;;22.30;12.53;;;;;;;5.61;100.00;101428.37;4853428;58;1143160;-71
2023/04/08 06:15:58;;;;;;;25.80;14.45;;;;;;;5.62;100.00;101430.08;4795151;59;1143233;-71
2023/04/08 06:21:04;;;;;;;23.03;14.87;;;;;;;5.68;100.00;101435.05;4785531;59;1143016;-72
2023/04/08 06:26:10;;;;;;;24.10;14.57;;;;;;;5.74;100.00;101442.67;4918179;58;1141132;-69
2023/04/08 06:31:15;;;;;;;22.77;14.47;;;;;;;5.79;100.00;101452.52;4806172;59;1143060;-68
2023/04/08 06:36:21;;;;;;;24.67;14.80;;;;;;;5.90;100.00;101454.25;4800471;58;1143231;-69
2023/04/08 06:41:27;;;;;;;25.83;15.80;;;;;;;5.99;100.00;101466.97;5020151;57;1143167;-67
2023/04/08 06:46:34;;;;;;;29.20;14.77;;;;;;;6.09;100.00;101472.69;4983182;57;1143290;-68
2023/04/08 06:51:39;;;;;;;32.60;16.53;;;;;;;6.20;100.00;101477.00;4862412;57;1143302;-69
2023/04/08 06:56:46;;;;;;;24.67;15.43;;;;;;;6.26;100.00;101478.02;4944984;57;1143452;-70
2023/04/08 07:01:52;;;;;;;31.55;17.85;;;;;;;6.37;100.00;101479.34;4986530;56;1152716;-69
2023/04/08 07:06:57;;;;;;;28.80;17.00;;;;;;;6.47;100.00;101477.99;4928939;57;1143103;-71
2023/04/08 07:12:10;;;;;;;24.73;16.57;;;;;;;6.57;100.00;101492.45;4917051;57;1143335;-77
2023/04/08 07:17:14;;;;;;;31.13;17.53;;;;;;;6.66;100.00;101494.64;4921213;57;1144096;-75
2023/04/08 07:22:20;;;;;;;32.47;17.90;;;;;;;6.81;100.00;101500.51;4971705;57;1143131;-76
2023/04/08 07:27:26;;;;;;;32.53;20.70;;;;;;;6.82;100.00;101507.94;4962283;57;1143099;-77
2023/04/08 07:32:33;;;;;;;29.73;19.13;;;;;;;6.84;100.00;101503.46;4960237;57;1143083;-75
2023/04/08 07:37:39;;;;;;;28.73;18.10;;;;;;;6.91;100.00;101506.19;4969935;57;1142988;-75
2023/04/08 07:43:19;;;;;;;28.20;18.20;;;;;;;6.92;100.00;101505.26;4858021;58;1143221;-75
2023/04/08 07:48:47;;;;;;;30.27;19.07;;;;;;;6.92;100.00;101502.62;4707521;59;1143159;-76
2023/04/08 07:53:52;;;;;;;30.43;21.73;;;;;;;6.93;100.00;101518.34;4792599;59;1143458;-77
2023/04/08 07:58:58;;;;;;;25.65;17.07;;;;;;;6.90;100.00;101525.05;4785209;58;1143133;-77
2023/04/08 08:04:04;;;;;;;23.30;16.12;;;;;;;6.89;100.00;101528.60;4886742;57;1143236;-74
2023/04/08 08:09:09;;;;;;;27.93;19.67;;;;;;;6.86;100.00;101544.55;4916706;57;1143532;-76
2023/04/08 08:14:15;;;;;;;62.90;29.52;;;;;;;6.86;100.00;101544.55;4777492;59;1143165;-77
2023/04/08 08:19:24;;;;;;;26.00;16.40;;;;;;;6.87;100.00;101548.88;4763730;59;1143329;-75
2023/04/08 08:24:30;;;;;;;27.87;16.60;;;;;;;6.90;100.00;101550.49;4711140;60;1143163;-77
2023/04/08 08:29:36;;;;;;;26.13;19.30;;;;;;;6.91;100.00;101557.46;4740127;60;1143068;-76
2023/04/08 08:34:41;;;;;;;24.70;16.93;;;;;;;6.88;100.00;101567.66;4797408;59;1143105;-76
2023/04/08 08:39:47;;;;;;;23.60;16.33;;;;;;;6.91;100.00;101572.78;4752079;59;1143118;-75
2023/04/08 08:44:52;;;;;;;115.97;78.77;;;;;;;6.97;100.00;101571.20;4790894;58;1143150;-77
2023/04/08 08:49:58;;;;;;;23.73;16.37;;;;;;;7.01;100.00;101563.56;4836484;58;1145487;-78
2023/04/08 08:55:04;;;;;;;21.93;15.73;;;;;;;7.01;100.00;101571.92;4760747;59;1141276;-76
2023/04/08 09:00:10;;;;;;;46.98;26.48;;;;;;;7.10;100.00;101570.16;4781464;59;1143427;-75
2023/04/08 09:05:16;;;;;;;35.57;27.70;;;;;;;7.23;100.00;101582.28;4870299;58;1143438;-74
2023/04/08 09:10:27;;;;;;;31.87;21.02;;;;;;;7.28;100.00;101591.67;4854305;58;1143464;-73
2023/04/08 09:15:33;;;;;;;24.10;16.37;;;;;;;7.32;100.00;101600.29;4784080;59;1141660;-75
2023/04/08 09:20:41;;;;;;;30.17;18.53;;;;;;;7.39;100.00;101606.95;4916019;57;1143098;-72
2023/04/08 09:25:47;;;;;;;307.53;160.33;;;;;;;7.45;100.00;101609.31;4930678;58;1143091;-75
2023/04/08 09:30:53;;;;;;;62.37;42.17;;;;;;;7.74;100.00;101610.09;4922827;57;1147354;-73
2023/04/08 09:35:58;;;;;;;40.83;21.40;;;;;;;8.17;100.00;101607.96;4912047;57;1143073;-73
2023/04/08 09:41:10;;;;;;;25.60;17.20;;;;;;;8.64;100.00;101604.71;4937599;57;1143670;-73
2023/04/08 09:46:17;;;;;;;31.50;19.65;;;;;;;8.86;100.00;101599.99;4843993;58;1143237;-75
2023/04/08 09:51:24;;;;;;;25.33;16.37;;;;;;;9.06;100.00;101605.53;4922132;58;1143346;-73
2023/04/08 09:56:37;;;;;;;21.57;15.55;;;;;;;9.41;100.00;101600.51;4891475;58;1143232;-74
2023/04/08 10:01:46;;;;;;;28.95;18.42;;;;;;;9.79;100.00;101597.02;4916395;59;1142988;-75
2023/04/08 10:06:56;;;;;;;27.57;20.97;;;;;;;9.94;100.00;101602.36;4822056;58;1143170;-75
2023/04/08 10:12:04;;;;;;;23.27;16.63;;;;;;;9.90;100.00;101602.17;4887992;58;1143205;-74
2023/04/08 10:17:28;;;;;;;25.50;18.77;;;;;;;10.08;100.00;101597.15;4853259;58;1195106;-75
2023/04/08 10:22:47;;;;;;;26.40;17.27;;;;;;;10.12;100.00;101602.14;4861160;58;1145881;-76
2023/04/08 10:27:53;;;;;;;21.53;16.90;;;;;;;10.02;100.00;101604.09;4895674;58;1145174;-73
2023/04/08 10:33:00;;;;;;;28.87;18.03;;;;;;;10.02;100.00;101603.63;4885209;58;1145439;-74
2023/04/08 10:38:05;;;;;;;30.60;19.02;;;;;;;10.10;100.00;101604.02;4903140;58;1145042;-72
2023/04/08 10:43:14;;;;;;;26.68;19.50;;;;;;;10.20;100.00;101601.75;4856166;58;1145158;-74
2023/04/08 10:48:23;;;;;;;68.72;51.73;;;;;;;10.19;100.00;101610.14;4799953;59;1240142;-73
2023/04/08 10:53:38;;;;;;;31.27;24.00;;;;;;;10.26;100.00;101599.19;4728799;59;1246788;-75
2023/04/08 10:58:52;;;;;;;43.00;22.90;;;;;;;10.54;100.00;101604.06;4949807;58;1145321;-75
2023/04/08 11:03:59;;;;;;;30.70;20.80;;;;;;;10.51;100.00;101603.42;4774050;59;1230152;-77
2023/04/08 11:09:05;;;;;;;21.97;16.73;;;;;;;10.67;100.00;101596.73;4802891;59;1258202;-74
2023/04/08 11:14:11;;;;;;;25.13;19.07;;;;;;;11.02;100.00;101590.09;4807755;59;1145348;-77
2023/04/08 11:19:16;;;;;;;26.93;19.47;;;;;;;11.40;100.00;101588.17;4900742;57;1145090;-73
2023/04/08 11:24:22;;;;;;;23.52;17.80;;;;;;;11.61;100.00;101586.77;4834694;58;1186510;-73
2023/04/08 11:29:30;;;;;;;20.02;16.45;;;;;;;11.74;100.00;101591.67;4921205;57;1145202;-74
2023/04/08 11:34:39;;;;;;;28.13;20.63;;;;;;;11.81;100.00;101579.73;4914288;58;1145590;-73
2023/04/08 11:39:46;;;;;;;28.73;21.13;;;;;;;11.86;100.00;101588.72;4908021;57;1145181;-75
2023/04/08 11:44:51;;;;;;;25.60;20.00;;;;;;;11.93;100.00;101589.99;4874702;58;1145115;-77
2023/04/08 11:49:57;;;;;;;32.40;21.27;;;;;;;11.82;100.00;101596.48;4909043;57;1145523;-76
2023/04/08 11:55:04;;;;;;;28.13;20.50;;;;;;;11.82;100.00;101606.61;4852552;58;1145191;-75
2023/04/08 12:00:11;;;;;;;31.97;20.47;;;;;;;12.12;100.00;101599.76;4762935;59;1145234;-75
2023/04/08 12:05:16;;;;;;;27.67;19.67;;;;;;;12.26;100.00;101594.38;4719678;60;1145440;-73
2023/04/08 12:10:24;;;;;;;27.05;20.80;;;;;;;12.39;100.00;101596.19;4703006;60;1145237;-74
2023/04/08 12:15:29;;;;;;;26.30;20.08;;;;;;;12.20;100.00;101597.94;4861052;58;1145288;-73
2023/04/08 12:20:35;;;;;;;24.93;19.27;;;;;;;12.10;100.00;101600.33;4757459;59;1215433;-74
2023/04/08 12:25:41;;;;;;;26.27;20.27;;;;;;;12.11;100.00;101592.75;4833296;58;1146158;-73
2023/04/08 12:30:46;;;;;;;26.80;19.73;;;;;;;12.31;100.00;101588.30;4860686;59;1145207;-76
2023/04/08 12:35:52;;;;;;;46.63;31.62;;;;;;;12.39;100.00;101588.23;4838540;59;1145480;-76
2023/04/08 12:40:58;;;;;;;27.70;20.63;;;;;;;12.43;100.00;101593.70;4840551;59;1145379;-74
2023/04/08 12:46:04;;;;;;;28.33;22.13;;;;;;;12.54;100.00;101593.34;4823942;58;1145335;-74
2023/04/08 12:51:09;;;;;;;27.67;19.87;;;;;;;12.64;100.00;101594.42;4845087;58;1212181;-76
2023/04/08 12:56:15;;;;;;;31.50;20.10;;;;;;;12.76;100.00;101590.54;4735535;60;1151939;-76
2023/04/08 13:01:20;;;;;;;27.10;18.56;;;;;;;13.02;100.00;101584.23;4778859;60;1145524;-73
2023/04/08 13:06:26;;;;;;;28.45;20.02;;;;;;;13.10;100.00;101586.36;4723560;60;1145239;-76
2023/04/08 13:11:32;;;;;;;30.27;21.62;;;;;;;12.96;100.00;101582.89;4720570;60;1145577;-76
2023/04/08 13:16:38;;;;;;;23.13;18.07;;;;;;;12.75;100.00;101585.70;4722064;60;1145276;-76
2023/04/08 13:21:44;;;;;;;26.63;19.03;;;;;;;12.58;100.00;101586.02;4775138;58;1145053;-76
2023/04/08 13:26:50;;;;;;;27.00;18.47;;;;;;;12.52;100.00;101582.48;4784080;58;1145171;-75
2023/04/08 13:31:55;;;;;;;25.63;19.67;;;;;;;12.60;100.00;101582.79;4854844;57;1145186;-75
2023/04/08 13:37:02;;;;;;;25.03;18.07;;;;;;;12.76;100.00;101581.25;4878169;57;1145944;-76
2023/04/08 13:42:07;;;;;;;28.37;19.20;;;;;;;12.92;100.00;101584.53;4857549;57;1145170;-74
2023/04/08 13:47:13;;;;;;;33.43;28.13;;;;;;;13.11;100.00;101584.08;4768681;59;1145230;-75
2023/04/08 13:52:19;;;;;;;32.10;22.27;;;;;;;13.21;100.00;101578.02;4806005;59;1145272;-75
2023/04/08 13:57:24;;;;;;;29.98;22.87;;;;;;;13.26;100.00;101573.72;4856371;59;1145575;-75
2023/04/08 14:02:30;;;;;;;34.90;23.77;;;;;;;13.26;100.00;101575.05;4784026;58;1145233;-74
2023/04/08 14:07:36;;;;;;;49.27;25.63;;;;;;;13.30;100.00;101571.19;4779818;59;1145222;-76
2023/04/08 14:12:41;;;;;;;26.97;17.07;;;;;;;13.33;100.00;101566.98;4659268;60;1145446;-76
2023/04/08 14:17:48;;;;;;;31.57;20.97;;;;;;;13.27;100.00;101570.95;4755973;60;1145416;-74
2023/04/08 14:22:55;;;;;;;27.13;18.63;;;;;;;13.17;100.00;101562.41;4908491;58;1145342;-74
2023/04/08 14:28:01;;;;;;;25.83;16.83;;;;;;;13.07;100.00;101562.67;4939992;58;1145126;-76
2023/04/08 14:33:06;;;;;;;30.07;16.70;;;;;;;12.87;100.00;101568.91;4911585;57;1145265;-77
2023/04/08 14:38:12;;;;;;;33.30;20.40;;;;;;;12.88;100.00;101561.80;4918350;58;1145129;-75
2023/04/08 14:43:17;;;;;;;27.58;19.02;;;;;;;13.02;100.00;101559.86;4917126;58;1145339;-76
2023/04/08 14:48:25;;;;;;;23.50;16.67;;;;;;;12.95;100.00;101554.63;4933582;58;1145845;-75
2023/04/08 14:53:30;;;;;;;41.90;21.06;;;;;;;12.83;100.00;101557.31;4920272;58;1145266;-76
2023/04/08 14:58:36;;;;;;;22.13;16.60;;;;;;;12.86;100.00;101556.59;4915634;58;1145243;-74
2023/04/08 15:03:42;;;;;;;20.97;17.00;;;;;;;13.11;100.00;101549.08;4936878;58;1145190;-76
2023/04/08 15:08:47;;;;;;;22.30;16.53;;;;;;;13.31;100.00;101548.50;4923242;58;1145303;-74
2023/04/08 15:13:53;;;;;;;20.83;15.97;;;;;;;13.37;100.00;101549.39;4871163;57;1145172;-76
2023/04/08 15:18:59;;;;;;;24.07;16.50;;;;;;;13.44;100.00;101543.64;4858236;59;1145985;-76
2023/04/08 15:24:05;;;;;;;22.00;15.97;;;;;;;13.54;100.00;101546.83;4779919;59;1145105;-75
2023/04/08 15:29:10;;;;;;;21.33;15.80;;;;;;;13.60;100.00;101553.48;4799607;58;1145568;-76
2023/04/08 15:34:17;;;;;;;21.64;16.08;;;;;;;13.69;100.00;101552.83;4733004;60;1145357;-77
2023/04/08 15:39:23;;;;;;;19.23;16.25;;;;;;;13.66;100.00;101553.89;4717509;59;1145574;-77
2023/04/08 15:44:32;;;;;;;19.87;15.72;;;;;;;13.56;100.00;101558.20;4732164;59;1145297;-76
2023/04/08 15:49:37;;;;;;;29.17;20.03;;;;;;;13.41;100.00;101558.48;4938385;58;1145283;-76
2023/04/08 15:54:43;;;;;;;33.85;20.40;;;;;;;13.31;100.00;101559.13;4962318;58;1145214;-76
2023/04/08 15:59:48;;;;;;;25.73;18.93;;;;;;;13.34;100.00;101561.56;4936479;57;1145360;-76
2023/04/08 16:04:54;;;;;;;24.13;18.70;;;;;;;13.41;100.00;101563.31;4938485;58;1145207;-76
2023/04/08 16:10:00;;;;;;;23.13;17.00;;;;;;;13.40;100.00;101562.09;4770310;59;1145351;-74
2023/04/08 16:15:07;;;;;;;28.63;21.93;;;;;;;13.41;100.00;101565.12;4775763;59;1145314;-76
2023/04/08 16:20:13;;;;;;;22.60;17.37;;;;;;;13.47;100.00;101569.97;4774901;59;1145173;-74
2023/04/08 16:25:18;;;;;;;24.37;18.07;;;;;;;13.44;100.00;101569.73;4729267;59;1145975;-76
2023/04/08 16:30:25;;;;;;;24.52;18.15;;;;;;;13.42;100.00;101571.66;4960194;57;1145435;-74
2023/04/08 16:35:31;;;;;;;21.60;16.32;;;;;;;13.45;100.00;101571.88;4938149;58;1145442;-74
2023/04/08 16:40:38;;;;;;;17.37;15.50;;;;;;;13.41;100.00;101572.61;4935627;58;1145495;-75
2023/04/08 16:45:44;;;;;;;23.83;18.20;;;;;;;13.36;100.00;101574.27;4957436;58;1145109;-73
2023/04/08 16:50:50;;;;;;;23.00;15.77;;;;;;;13.33;100.00;101578.47;4938930;58;1145501;-74
2023/04/08 16:55:55;;;;;;;22.83;16.67;;;;;;;13.26;100.00;101578.55;4941335;58;1145049;-74
2023/04/08 17:01:01;;;;;;;23.53;17.10;;;;;;;13.13;100.00;101590.98;4881138;58;1145474;-75
2023/04/08 17:06:10;;;;;;;46.43;26.30;;;;;;;13.04;100.00;101593.80;4820035;58;1145271;-76
2023/04/08 17:11:16;;;;;;;33.30;22.67;;;;;;;12.93;100.00;101600.84;4862764;58;1145117;-75
2023/04/08 17:16:22;;;;;;;33.93;22.27;;;;;;;12.81;100.00;101598.56;4863383;58;1145128;-76
2023/04/08 17:21:27;;;;;;;31.77;21.12;;;;;;;12.73;100.00;101604.88;4882938;58;1145141;-74
2023/04/08 17:26:33;;;;;;;32.30;22.67;;;;;;;12.62;100.00;101610.08;4858893;58;1145206;-73
2023/04/08 17:31:40;;;;;;;42.63;24.60;;;;;;;12.55;100.00;101613.61;4857419;58;1145169;-69
2023/04/08 17:36:45;;;;;;;44.93;28.85;;;;;;;12.47;100.00;101611.98;4802284;59;1145328;-72
2023/04/08 17:41:51;;;;;;;99.23;59.13;;;;;;;12.40;100.00;101617.31;4783548;59;1145438;-69
2023/04/08 17:53:05;;;;;;;90.83;52.60;;;;;;;12.13;100.00;101620.50;4812243;58;1147392;-69
2023/04/08 17:58:10;;;;;;;88.87;50.73;;;;;;;11.84;100.00;101624.59;4704764;60;1145585;-70
2023/04/08 18:03:16;;;;;;;77.70;44.87;;;;;;;11.60;100.00;101630.98;4721724;59;1145339;-71
2023/04/08 18:08:23;;;;;;;91.90;49.83;;;;;;;11.51;100.00;101633.36;4820382;59;1145498;-73
2023/04/08 18:13:28;;;;;;;68.07;42.43;;;;;;;11.42;100.00;101647.20;4811527;57;1145922;-71
2023/04/08 18:18:36;;;;;;;64.50;40.33;;;;;;;11.34;100.00;101652.96;4914639;58;1145207;-71
2023/04/08 18:23:42;;;;;;;88.85;48.35;;;;;;;11.29;100.00;101655.07;4882970;58;1145607;-66
2023/04/08 18:28:47;;;;;;;301.77;150.93;;;;;;;11.20;100.00;101653.83;4863303;58;1145328;-71
2023/04/08 18:34:04;;;;;;;347.30;171.70;;;;;;;11.06;100.00;101657.80;4900676;58;1149146;-72
2023/04/08 18:45:10;;;;;;;299.47;152.00;;;;;;;10.99;100.00;101665.76;4725528;60;1149855;-72
2023/04/08 18:50:16;;;;;;;249.88;129.97;;;;;;;11.00;100.00;101673.23;4933079;58;1149495;-72
2023/04/08 18:55:21;;;;;;;242.83;127.27;;;;;;;10.97;100.00;101676.05;4916825;58;1149467;-72
2023/04/08 19:00:27;;;;;;;207.63;115.77;;;;;;;10.86;100.00;101674.03;4866775;58;1149399;-70
2023/04/08 19:05:33;;;;;;;220.77;121.10;;;;;;;10.78;100.00;101677.63;4896051;58;1149422;-71
2023/04/08 19:10:39;;;;;;;211.13;112.17;;;;;;;10.56;100.00;101667.45;4913031;58;1149526;-71
2023/04/08 19:15:44;;;;;;;110.60;61.20;;;;;;;10.39;100.00;101679.03;4924775;58;1149322;-68
2023/04/08 19:20:50;;;;;;;77.40;43.50;;;;;;;9.88;100.00;101673.13;4910944;58;1147331;-70
2023/04/08 19:25:56;;;;;;;79.77;43.07;;;;;;;9.44;100.00;101677.38;4908815;58;1143492;-70
2023/04/08 19:31:02;;;;;;;66.28;37.17;;;;;;;9.44;100.00;101677.38;4928061;57;1143125;-69
2023/04/08 19:36:08;;;;;;;68.77;36.93;;;;;;;9.41;100.00;101675.76;4908091;58;1143826;-72
2023/04/08 19:41:14;;;;;;;62.93;35.03;;;;;;;9.41;100.00;101675.76;4904616;57;1143166;-70
2023/04/08 19:46:20;;;;;;;66.30;36.27;;;;;;;9.56;100.00;101674.53;4837932;57;1143264;-69
2023/04/08 19:51:26;;;;;;;62.83;38.07;;;;;;;9.55;100.00;101672.83;4867229;58;1143813;-70
2023/04/08 19:56:32;;;;;;;67.40;36.57;;;;;;;9.34;100.00;101677.48;4850195;58;1143153;-70
2023/04/08 20:01:39;;;;;;;60.57;35.80;;;;;;;9.31;100.00;101677.67;4850227;58;1143105;-70
2023/04/08 20:06:45;;;;;;;75.67;43.80;;;;;;;9.27;100.00;101677.44;4866883;58;1143438;-70
2023/04/08 20:11:51;;;;;;;104.75;51.42;;;;;;;9.29;100.00;101683.03;4834924;58;1140971;-70
2023/04/08 20:16:56;;;;;;;86.43;45.10;;;;;;;9.25;100.00;101684.12;4797640;59;1143038;-69
2023/04/08 20:22:02;;;;;;;88.17;45.20;;;;;;;8.91;100.00;101688.14;4821376;59;1143298;-68
2023/04/08 20:27:08;;;;;;;87.07;45.73;;;;;;;8.74;100.00;101692.50;4817640;59;1143234;-69
2023/04/08 20:32:13;;;;;;;122.83;62.83;;;;;;;8.85;100.00;101682.73;4800842;58;1143249;-70
2023/04/08 20:37:19;;;;;;;141.43;72.67;;;;;;;8.85;100.00;101682.73;4872165;58;1145567;-69
2023/04/08 20:42:25;;;;;;;162.00;85.37;;;;;;;8.86;100.00;101684.41;4936964;58;1145309;-70
2023/04/08 20:47:32;;;;;;;147.07;72.27;;;;;;;8.53;100.00;101686.16;4853821;58;1145408;-71
2023/04/08 20:52:38;;;;;;;145.53;72.73;;;;;;;8.26;100.00;101679.11;4840765;59;1153023;-69
2023/04/08 20:57:44;;;;;;;149.42;76.90;;;;;;;8.15;100.00;101686.70;4864241;57;1143103;-71
2023/04/08 21:02:49;;;;;;;127.60;71.60;;;;;;;8.15;100.00;101682.28;4839657;58;1145220;-70
2023/04/08 21:07:55;;;;;;;97.17;51.55;;;;;;;8.10;100.00;101687.77;4823190;58;1145650;-71
2023/04/08 21:13:00;;;;;;;96.30;53.28;;;;;;;8.18;100.00;101689.19;4873728;58;1143089;-70
2023/04/08 21:18:09;;;;;;;113.87;64.97;;;;;;;8.39;100.00;101687.71;4853536;58;1143426;-70
2023/04/08 21:23:13;;;;;;;94.60;52.70;;;;;;;8.41;100.00;101685.82;4863955;58;1145238;-73
2023/04/08 21:28:19;;;;;;;89.40;49.47;;;;;;;8.20;100.00;101681.60;4865745;58;1143086;-71
2023/04/08 21:33:25;;;;;;;72.87;42.53;;;;;;;7.95;100.00;101686.34;4827103;59;1141032;-69
2023/04/08 21:38:30;;;;;;;61.10;36.17;;;;;;;7.74;100.00;101682.97;4802319;60;1143194;-70
2023/04/08 21:43:36;;;;;;;65.85;36.55;;;;;;;7.63;100.00;101688.74;4782981;59;1143216;-72
2023/04/08 21:48:42;;;;;;;73.13;41.10;;;;;;;7.60;100.00;101688.02;4788620;58;1143227;-70
2023/04/08 21:53:47;;;;;;;149.17;62.70;;;;;;;7.75;100.00;101688.63;4792062;59;1143177;-69
2023/04/08 21:58:53;;;;;;;131.40;55.15;;;;;;;8.02;100.00;101692.56;4859107;57;1145251;-70
2023/04/08 22:03:58;;;;;;;106.05;47.98;;;;;;;8.16;100.00;101689.72;4882120;57;1145170;-72
2023/04/08 22:09:04;;;;;;;141.62;58.23;;;;;;;7.99;100.00;101691.39;4860038;58;1143054;-70
2023/04/08 22:14:09;;;;;;;89.33;42.00;;;;;;;7.95;100.00;101687.19;4917949;57;1143062;-69
2023/04/08 22:19:15;;;;;;;65.70;35.97;;;;;;;7.82;100.00;101683.90;4961524;57;1143004;-69
2023/04/08 22:24:22;;;;;;;73.07;38.53;;;;;;;7.76;100.00;101692.50;4934652;57;1143094;-67
2023/04/08 22:29:27;;;;;;;70.20;40.33;;;;;;;7.96;100.00;101687.58;4936251;57;1143106;-71
2023/04/08 22:34:33;;;;;;;192.00;63.57;;;;;;;8.02;100.00;101692.56;4949229;58;1143114;-69
2023/04/08 22:39:38;;;;;;;136.87;54.73;;;;;;;8.08;100.00;101683.06;4937457;57;1145178;-69
2023/04/08 22:44:44;;;;;;;139.17;56.27;;;;;;;8.19;100.00;101676.41;4915995;58;1145766;-70
2023/04/08 22:49:50;;;;;;;111.90;48.60;;;;;;;8.18;100.00;101679.50;4876813;58;1147660;-68